Time;durP1;ratioP1;P1;durP2;ratioP2;P2;SDS_P1;SDS_P2;PMS_P1;PMS_P2;Temp;Humidity;BMP_temperature;BMP_pressure;BME280_temperature;BME280_humidity;BME280_pressure;Samples;Min_cycle;Max_cycle;Signal;HPM_P1;HPM_P2
2024/03/16 00:00:43;;;;;;;24.00;13.63;;;14.30;90.80;;;;;;5115743;28;20119;-79
2024/03/16 00:03:09;;;;;;;24.92;13.73;;;14.30;90.80;;;;;;5115964;28;20032;-77
2024/03/16 00:05:37;;;;;;;26.42;15.15;;;14.30;90.80;;;;;;5116128;28;20031;-80
2024/03/16 00:08:05;;;;;;;25.80;15.50;;;14.20;90.60;;;;;;5115696;28;20059;-78
2024/03/16 00:10:32;;;;;;;30.52;17.20;;;14.20;90.80;;;;;;5115491;28;20028;-78
2024/03/16 00:13:00;;;;;;;24.77;15.32;;;14.20;90.80;;;;;;5115455;28;20494;-80
2024/03/16 00:15:26;;;;;;;26.67;16.58;;;14.20;90.80;;;;;;5115416;28;20063;-79
2024/03/16 00:17:53;;;;;;;28.67;16.90;;;14.20;90.80;;;;;;5097029;28;20036;-80
2024/03/16 00:20:20;;;;;;;23.05;14.80;;;14.20;90.90;;;;;;5115578;28;20044;-79
2024/03/16 00:22:46;;;;;;;23.75;14.50;;;14.20;91.00;;;;;;5115243;28;20031;-79
2024/03/16 00:25:14;;;;;;;27.80;16.63;;;14.20;91.00;;;;;;5115565;28;20084;-79
2024/03/16 00:27:40;;;;;;;26.65;14.70;;;14.20;90.90;;;;;;5115237;28;20055;-78
2024/03/16 00:30:09;;;;;;;23.50;14.73;;;14.20;90.90;;;;;;5115125;28;20376;-78
2024/03/16 00:32:37;;;;;;;24.77;15.57;;;14.20;91.20;;;;;;5115488;28;20031;-79
2024/03/16 00:35:04;;;;;;;25.83;14.32;;;14.20;90.90;;;;;;5114981;28;20438;-79
2024/03/16 00:37:32;;;;;;;28.00;14.85;;;14.20;90.80;;;;;;5115341;28;20038;-79
2024/03/16 00:39:58;;;;;;;21.70;14.23;;;14.20;90.80;;;;;;5116037;28;20035;-78
2024/03/16 00:42:25;;;;;;;21.23;14.00;;;14.20;90.90;;;;;;5115428;28;20020;-77
2024/03/16 00:44:52;;;;;;;27.67;14.40;;;14.10;90.80;;;;;;5115320;28;20067;-78
2024/03/16 00:47:17;;;;;;;26.52;14.73;;;14.10;91.00;;;;;;5115118;28;20032;-79
2024/03/16 00:49:44;;;;;;;26.45;14.52;;;14.10;91.00;;;;;;5114953;28;20043;-79
2024/03/16 00:52:10;;;;;;;22.52;14.70;;;14.00;91.10;;;;;;5115526;28;20379;-79
2024/03/16 00:54:38;;;;;;;24.05;13.93;;;14.00;91.00;;;;;;5115248;28;20046;-77
2024/03/16 00:57:04;;;;;;;28.33;14.18;;;14.00;91.00;;;;;;5096136;28;20020;-79
2024/03/16 00:59:31;;;;;;;20.17;13.40;;;13.90;91.00;;;;;;5114817;28;20032;-80
2024/03/16 01:01:57;;;;;;;19.33;12.10;;;13.90;91.10;;;;;;5114924;28;20031;-78
2024/03/16 01:04:24;;;;;;;24.50;13.18;;;13.90;91.00;;;;;;5114808;28;20039;-78
2024/03/16 01:06:50;;;;;;;26.63;13.90;;;13.90;91.10;;;;;;5114772;28;20028;-79
2024/03/16 01:09:16;;;;;;;23.63;13.40;;;13.90;91.10;;;;;;5114494;28;20039;-78
2024/03/16 01:11:43;;;;;;;23.92;13.52;;;13.90;90.90;;;;;;5114787;28;20110;-78
2024/03/16 01:14:09;;;;;;;23.08;13.75;;;13.90;90.90;;;;;;5104445;28;20028;-78
2024/03/16 01:16:35;;;;;;;21.08;14.20;;;13.90;91.00;;;;;;5093788;28;20028;-79
2024/03/16 01:19:02;;;;;;;21.17;12.98;;;13.90;90.90;;;;;;5093804;28;20036;-78
2024/03/16 01:21:27;;;;;;;22.73;13.82;;;13.90;91.10;;;;;;5093871;28;20472;-77
2024/03/16 01:23:54;;;;;;;26.08;14.85;;;13.90;91.00;;;;;;5094247;28;20093;-79
2024/03/16 01:26:20;;;;;;;24.33;14.77;;;13.80;91.00;;;;;;5082085;28;20032;-79
2024/03/16 01:28:47;;;;;;;25.23;14.38;;;13.80;91.20;;;;;;5093942;28;20052;-78
2024/03/16 01:31:13;;;;;;;29.58;15.07;;;13.70;91.30;;;;;;5094468;28;20028;-79
2024/03/16 01:33:39;;;;;;;26.08;14.55;;;13.70;91.40;;;;;;5093522;28;20044;-78
2024/03/16 01:36:06;;;;;;;21.95;14.00;;;13.70;91.30;;;;;;5093921;28;20028;-79
2024/03/16 01:38:32;;;;;;;28.48;15.07;;;13.80;91.40;;;;;;5075467;28;20036;-79
2024/03/16 01:40:58;;;;;;;26.17;14.20;;;13.70;91.50;;;;;;5093645;28;20063;-78
2024/03/16 01:43:24;;;;;;;23.27;14.60;;;13.80;91.50;;;;;;5093381;28;20068;-78
2024/03/16 01:45:50;;;;;;;23.77;14.45;;;13.80;91.40;;;;;;5093633;28;20040;-78
2024/03/16 01:48:16;;;;;;;26.38;14.80;;;13.90;91.30;;;;;;5075452;28;20055;-79
2024/03/16 01:50:43;;;;;;;28.38;15.88;;;14.00;91.30;;;;;;5094111;28;20161;-79
2024/03/16 01:53:11;;;;;;;24.40;15.35;;;14.00;91.20;;;;;;5093912;28;20028;-78
2024/03/16 01:55:38;;;;;;;27.73;16.35;;;14.00;91.20;;;;;;5093376;28;20047;-78
2024/03/16 01:58:06;;;;;;;30.65;14.95;;;14.00;91.30;;;;;;5093019;28;20028;-78
2024/03/16 02:00:32;;;;;;;29.88;16.42;;;14.00;91.40;;;;;;5093008;28;20499;-77
2024/03/16 02:02:58;;;;;;;29.52;16.02;;;14.00;91.40;;;;;;5093046;28;20488;-78
2024/03/16 02:05:24;;;;;;;28.83;17.05;;;14.00;91.50;;;;;;5075325;28;20081;-78
2024/03/16 02:07:50;;;;;;;31.25;16.98;;;13.90;91.20;;;;;;5077364;28;20503;-78
2024/03/16 02:10:15;;;;;;;32.05;17.88;;;13.90;91.20;;;;;;5092695;28;20409;-78
2024/03/16 02:12:42;;;;;;;30.85;18.35;;;13.90;91.20;;;;;;5093021;28;20136;-78
2024/03/16 02:15:08;;;;;;;25.73;16.40;;;13.90;91.30;;;;;;5074711;28;20146;-77
2024/03/16 02:17:34;;;;;;;28.77;18.05;;;13.90;91.30;;;;;;5092527;28;20055;-77
2024/03/16 02:20:03;;;;;;;30.40;18.70;;;13.90;91.20;;;;;;5092854;28;20041;-79
2024/03/16 02:22:29;;;;;;;29.83;16.85;;;13.90;91.20;;;;;;5092639;28;20089;-78
2024/03/16 02:24:55;;;;;;;29.42;17.70;;;13.90;91.30;;;;;;5092867;28;20032;-80
2024/03/16 02:27:21;;;;;;;29.58;18.25;;;13.80;91.20;;;;;;5093257;28;20104;-78
2024/03/16 02:29:47;;;;;;;27.85;17.65;;;13.80;91.20;;;;;;5094273;28;20036;-77
2024/03/16 02:32:12;;;;;;;32.22;18.60;;;13.80;91.20;;;;;;5095980;28;20097;-77
2024/03/16 02:34:40;;;;;;;26.00;16.75;;;13.80;91.30;;;;;;5094628;28;20040;-79
2024/03/16 02:37:07;;;;;;;30.65;17.17;;;13.80;91.10;;;;;;5092993;28;20032;-78
2024/03/16 02:39:33;;;;;;;34.17;17.75;;;13.80;91.10;;;;;;5074378;28;20126;-79
2024/03/16 02:42:03;;;;;;;28.98;17.05;;;13.80;91.00;;;;;;5092924;28;20103;-77
2024/03/16 02:44:30;;;;;;;30.33;16.63;;;13.80;91.00;;;;;;5093228;28;20093;-79
2024/03/16 02:46:56;;;;;;;27.98;17.15;;;13.80;91.10;;;;;;5092800;28;20069;-78
2024/03/16 02:49:23;;;;;;;29.20;17.58;;;13.70;90.90;;;;;;5092636;28;20051;-76
2024/03/16 02:51:49;;;;;;;30.48;16.98;;;13.70;90.90;;;;;;5092500;28;20062;-78
2024/03/16 02:54:15;;;;;;;28.95;16.75;;;13.70;90.90;;;;;;5092670;28;20107;-78
2024/03/16 02:56:41;;;;;;;26.27;15.90;;;13.60;90.90;;;;;;5092971;28;20028;-77
2024/03/16 02:59:08;;;;;;;25.73;14.98;;;13.70;90.90;;;;;;5093884;28;20028;-77
2024/03/16 03:01:33;;;;;;;24.02;14.35;;;13.70;90.90;;;;;;5074395;28;20039;-78
2024/03/16 03:03:59;;;;;;;22.52;13.13;;;13.70;90.80;;;;;;5092358;28;20028;-78
2024/03/16 03:06:28;;;;;;;23.38;13.02;;;13.70;90.70;;;;;;5092448;28;20039;-78
2024/03/16 03:08:53;;;;;;;24.63;14.38;;;13.70;90.50;;;;;;5092412;28;20052;-77
2024/03/16 03:11:20;;;;;;;22.92;13.52;;;13.70;90.50;;;;;;5074254;28;20559;-78
2024/03/16 03:13:47;;;;;;;25.42;12.95;;;13.70;90.60;;;;;;5092345;28;20491;-78
2024/03/16 03:16:19;;;;;;;21.38;12.98;;;13.80;90.50;;;;;;5092326;28;20116;-77
2024/03/16 03:18:48;;;;;;;23.75;12.52;;;13.80;90.50;;;;;;4989510;28;20579;-78
2024/03/16 03:21:14;;;;;;;21.25;12.25;;;13.70;90.40;;;;;;4990955;28;20038;-79
2024/03/16 03:23:43;;;;;;;20.13;11.75;;;13.70;90.40;;;;;;4993200;28;20039;-78
2024/03/16 03:26:12;;;;;;;21.17;12.88;;;13.70;90.40;;;;;;4993309;28;20031;-78
2024/03/16 03:28:38;;;;;;;19.33;12.10;;;13.70;90.50;;;;;;4992962;28;20103;-79
2024/03/16 03:31:04;;;;;;;21.75;11.80;;;13.70;90.50;;;;;;4992897;28;20521;-78
2024/03/16 03:33:30;;;;;;;22.42;12.55;;;13.70;90.50;;;;;;4992914;28;20042;-79
2024/03/16 03:35:57;;;;;;;19.20;12.07;;;13.70;90.50;;;;;;4993186;28;20038;-76
2024/03/16 03:38:22;;;;;;;20.73;11.90;;;13.70;90.50;;;;;;4992904;28;20204;-78
2024/03/16 03:40:48;;;;;;;20.90;12.30;;;13.70;90.40;;;;;;5060325;28;20127;-79
2024/03/16 03:43:17;;;;;;;24.30;12.88;;;13.70;90.40;;;;;;4992974;28;20034;-78
2024/03/16 03:50:56;;;;;;;23.38;12.80;;;13.60;90.30;;;;;;4992540;28;20027;-78
2024/03/16 03:53:25;;;;;;;23.55;12.75;;;13.60;90.30;;;;;;4992513;28;20034;-78
2024/03/16 03:55:51;;;;;;;23.23;12.45;;;13.60;90.50;;;;;;5059992;28;20034;-78
2024/03/16 03:58:17;;;;;;;28.35;13.60;;;13.60;90.50;;;;;;4992337;28;20160;-79
2024/03/16 04:00:44;;;;;;;22.67;13.60;;;13.60;90.50;;;;;;4992693;28;20386;-80
2024/03/16 04:03:10;;;;;;;21.85;13.25;;;13.60;90.50;;;;;;4995553;28;20034;-77
2024/03/16 04:05:36;;;;;;;22.83;12.35;;;13.60;90.50;;;;;;4992904;28;20513;-78
2024/03/16 04:08:02;;;;;;;22.70;12.95;;;13.50;90.50;;;;;;4992376;28;20041;-78
2024/03/16 04:10:28;;;;;;;22.98;13.13;;;13.50;90.50;;;;;;4992332;28;20042;-78
2024/03/16 04:12:54;;;;;;;22.58;13.23;;;13.60;90.50;;;;;;4992724;28;20038;-78
2024/03/16 04:15:19;;;;;;;23.92;13.15;;;13.60;90.50;;;;;;4992435;28;20130;-78
2024/03/16 04:17:45;;;;;;;21.23;12.82;;;13.60;90.50;;;;;;5061374;22;20072;-78
2024/03/16 04:20:12;;;;;;;21.88;12.60;;;13.50;90.50;;;;;;5075033;28;20115;-79
2024/03/16 04:22:38;;;;;;;23.08;12.75;;;13.60;90.60;;;;;;5073396;28;20037;-78
2024/03/16 04:25:07;;;;;;;25.60;13.10;;;13.60;90.50;;;;;;5074675;28;20033;-79
2024/03/16 04:27:33;;;;;;;21.20;12.48;;;13.60;90.40;;;;;;5073441;28;20032;-78
2024/03/16 04:29:59;;;;;;;20.35;12.38;;;13.60;90.40;;;;;;5073099;28;20073;-78
2024/03/16 04:32:26;;;;;;;21.27;12.48;;;13.60;90.40;;;;;;5074631;28;20136;-77
2024/03/16 04:34:55;;;;;;;23.27;12.02;;;13.60;90.50;;;;;;5074409;28;20036;-79
2024/03/16 04:37:21;;;;;;;20.63;12.27;;;13.60;90.40;;;;;;5074754;28;20075;-77
2024/03/16 04:39:47;;;;;;;20.85;13.13;;;13.60;90.50;;;;;;5074529;28;20071;-77
2024/03/16 04:42:14;;;;;;;25.13;12.43;;;13.60;90.40;;;;;;5074451;28;20170;-78
2024/03/16 04:44:40;;;;;;;19.15;11.73;;;13.60;90.50;;;;;;5074354;28;20044;-78
2024/03/16 04:47:06;;;;;;;21.33;12.73;;;13.70;90.50;;;;;;5074284;28;20036;-77
2024/03/16 04:49:32;;;;;;;22.70;12.25;;;13.60;90.30;;;;;;5072799;28;20040;-78
2024/03/16 04:51:58;;;;;;;21.73;11.75;;;13.60;90.40;;;;;;5074379;28;20043;-78
2024/03/16 04:54:23;;;;;;;19.85;12.30;;;13.60;90.40;;;;;;5074036;28;20094;-77
2024/03/16 04:56:49;;;;;;;22.73;13.80;;;13.60;90.40;;;;;;5076475;28;20090;-77
2024/03/16 04:59:15;;;;;;;21.25;12.80;;;13.60;90.40;;;;;;5077429;28;20082;-77
2024/03/16 05:01:41;;;;;;;24.83;12.32;;;13.50;90.40;;;;;;5074051;28;20032;-78
2024/03/16 05:04:07;;;;;;;23.35;12.38;;;13.50;90.50;;;;;;5073980;28;20044;-75
2024/03/16 05:06:34;;;;;;;21.55;12.55;;;13.40;90.50;;;;;;5074015;28;20020;-78
2024/03/16 05:09:05;;;;;;;20.80;11.85;;;13.40;90.60;;;;;;5055566;28;20040;-78
2024/03/16 05:11:31;;;;;;;20.80;12.60;;;13.30;90.70;;;;;;5073968;28;20025;-76
2024/03/16 05:13:58;;;;;;;22.23;10.93;;;13.30;90.60;;;;;;5073911;28;20115;-78
2024/03/16 05:16:24;;;;;;;17.27;10.10;;;13.30;90.70;;;;;;5074007;28;20064;-79
2024/03/16 05:18:50;;;;;;;19.90;10.50;;;13.30;90.70;;;;;;5074187;28;20056;-78
2024/03/16 05:21:16;;;;;;;18.83;10.23;;;13.30;90.70;;;;;;5073898;28;20051;-77
2024/03/16 05:23:45;;;;;;;18.63;9.93;;;13.20;90.80;;;;;;5073879;28;20032;-79
2024/03/16 05:26:14;;;;;;;18.52;9.15;;;13.20;90.70;;;;;;5073577;28;20029;-79
2024/03/16 05:28:39;;;;;;;15.77;8.50;;;13.20;90.60;;;;;;5073384;28;20040;-79
2024/03/16 05:31:06;;;;;;;19.10;9.15;;;13.20;90.80;;;;;;5073310;28;20024;-78
2024/03/16 05:33:32;;;;;;;16.55;8.90;;;13.20;90.80;;;;;;5073407;28;20047;-78
2024/03/16 05:35:59;;;;;;;17.45;9.02;;;13.20;90.70;;;;;;5073320;28;20036;-78
2024/03/16 05:38:25;;;;;;;15.77;9.30;;;13.30;90.90;;;;;;5073494;28;20033;-77
2024/03/16 05:40:50;;;;;;;18.02;9.73;;;13.30;90.80;;;;;;5073367;28;20078;-78
2024/03/16 05:43:16;;;;;;;20.67;10.32;;;13.30;90.70;;;;;;5072589;28;20108;-78
2024/03/16 05:45:41;;;;;;;14.23;8.35;;;13.30;90.80;;;;;;5072770;28;20119;-78
2024/03/16 05:48:07;;;;;;;15.60;8.93;;;13.30;90.80;;;;;;5074087;28;20033;-77
2024/03/16 05:50:35;;;;;;;21.20;8.32;;;13.40;90.90;;;;;;5075172;28;20066;-78
2024/03/16 05:53:00;;;;;;;14.60;8.02;;;13.40;90.70;;;;;;5072333;28;20511;-77
2024/03/16 05:55:26;;;;;;;15.00;8.10;;;13.40;90.50;;;;;;5072914;28;20028;-78
2024/03/16 05:57:52;;;;;;;15.73;9.23;;;13.40;90.50;;;;;;5072723;28;20036;-78
2024/03/16 06:00:19;;;;;;;14.40;8.30;;;13.40;90.80;;;;;;5072613;28;20028;-77
2024/03/16 06:02:45;;;;;;;21.92;8.95;;;13.40;90.70;;;;;;5072836;28;20028;-78
2024/03/16 06:05:11;;;;;;;15.73;8.80;;;13.40;90.40;;;;;;5072703;28;20043;-77
2024/03/16 06:07:37;;;;;;;16.08;9.00;;;13.40;90.40;;;;;;5073000;28;20489;-78
2024/03/16 06:10:03;;;;;;;17.00;8.38;;;13.40;90.30;;;;;;5072947;28;20056;-77
2024/03/16 06:12:30;;;;;;;20.15;9.10;;;13.50;90.30;;;;;;5072774;28;20131;-77
2024/03/16 06:14:57;;;;;;;14.80;9.25;;;13.50;90.20;;;;;;5072865;28;20499;-78
2024/03/16 06:17:23;;;;;;;13.98;8.50;;;13.60;90.20;;;;;;5074538;28;20037;-78
2024/03/16 06:19:50;;;;;;;15.50;9.13;;;13.80;90.00;;;;;;5074038;28;20036;-80
2024/03/16 06:22:16;;;;;;;16.85;9.90;;;13.90;89.70;;;;;;5072353;28;20035;-77
2024/03/16 06:24:43;;;;;;;16.65;9.80;;;13.80;89.90;;;;;;5072470;28;20139;-78
2024/03/16 06:27:10;;;;;;;21.02;10.82;;;13.90;90.00;;;;;;5072340;28;20029;-80
2024/03/16 06:29:36;;;;;;;18.05;10.70;;;14.00;89.70;;;;;;5072338;28;20040;-78
2024/03/16 06:32:08;;;;;;;16.35;10.27;;;14.10;89.60;;;;;;5072212;28;20112;-78
2024/03/16 06:34:34;;;;;;;17.77;10.52;;;14.20;89.00;;;;;;5072645;28;20040;-78
2024/03/16 06:37:01;;;;;;;19.40;11.02;;;14.20;89.20;;;;;;5073204;28;20419;-78
2024/03/16 06:39:27;;;;;;;18.83;11.93;;;14.20;89.40;;;;;;5072496;28;20119;-79
2024/03/16 06:41:53;;;;;;;21.45;11.93;;;14.10;89.30;;;;;;5072347;28;20025;-79
2024/03/16 06:44:19;;;;;;;18.27;12.20;;;14.10;89.50;;;;;;5072431;28;20064;-77
2024/03/16 06:46:44;;;;;;;22.60;12.35;;;14.10;89.50;;;;;;5072182;28;20432;-78
2024/03/16 06:49:10;;;;;;;22.30;13.00;;;14.30;89.20;;;;;;5072235;28;20040;-79
2024/03/16 06:51:36;;;;;;;23.77;17.17;;;14.50;89.20;;;;;;5072369;28;20029;-80
2024/03/16 06:54:03;;;;;;;23.70;12.88;;;16.10;87.40;;;;;;5072207;28;20040;-79
2024/03/16 06:56:29;;;;;;;19.83;11.90;;;17.60;82.80;;;;;;5074191;28;20032;-79
2024/03/16 06:58:55;;;;;;;19.83;10.88;;;18.90;79.40;;;;;;5076314;28;20438;-79
2024/03/16 07:01:24;;;;;;;17.98;11.65;;;19.70;77.50;;;;;;5076086;28;20119;-79
2024/03/16 07:03:51;;;;;;;22.48;11.98;;;20.50;75.00;;;;;;5076366;28;20040;-79
2024/03/16 07:06:16;;;;;;;17.92;11.40;;;20.80;73.40;;;;;;5075925;28;20035;-78
2024/03/16 07:08:42;;;;;;;18.38;11.68;;;20.00;73.90;;;;;;5075955;28;20040;-79
2024/03/16 07:11:08;;;;;;;15.10;11.13;;;19.10;75.70;;;;;;5075905;28;20104;-79
2024/03/16 07:13:35;;;;;;;24.48;12.35;;;18.70;77.20;;;;;;5076104;28;20071;-80
2024/03/16 07:16:00;;;;;;;20.40;12.25;;;18.50;77.70;;;;;;5079546;28;20507;-78
2024/03/16 07:18:26;;;;;;;23.27;12.00;;;18.00;78.40;;;;;;5078030;28;20052;-77
2024/03/16 07:20:52;;;;;;;21.45;12.30;;;17.60;79.20;;;;;;5058119;28;20024;-79
2024/03/16 07:23:18;;;;;;;20.85;11.40;;;17.20;80.00;;;;;;5075724;28;20032;-79
2024/03/16 07:25:50;;;;;;;24.02;10.73;;;16.90;80.80;;;;;;5058033;28;20089;-80
2024/03/16 07:28:17;;;;;;;19.65;10.90;;;16.50;81.30;;;;;;5075653;28;20041;-80
2024/03/16 07:30:43;;;;;;;17.17;11.05;;;16.30;81.90;;;;;;5077768;28;20492;-78
2024/03/16 07:33:09;;;;;;;23.27;10.63;;;16.00;82.30;;;;;;5078429;28;20028;-78
2024/03/16 07:35:35;;;;;;;20.00;10.93;;;15.90;82.50;;;;;;5077395;28;20469;-78
2024/03/16 07:38:01;;;;;;;18.83;10.70;;;15.80;82.90;;;;;;5076898;28;20056;-80
2024/03/16 07:40:27;;;;;;;17.55;10.20;;;15.70;83.20;;;;;;5075962;28;20048;-78
2024/03/16 07:42:53;;;;;;;16.52;10.95;;;15.70;83.60;;;;;;5075346;28;20029;-80
2024/03/16 07:45:19;;;;;;;26.45;11.27;;;15.80;84.00;;;;;;5075263;28;20111;-80
2024/03/16 07:47:44;;;;;;;18.92;11.57;;;15.90;83.60;;;;;;5075342;28;20024;-79
2024/03/16 07:50:10;;;;;;;20.58;11.48;;;16.10;83.30;;;;;;5075424;28;20404;-78
2024/03/16 07:52:36;;;;;;;16.58;11.45;;;16.20;82.90;;;;;;5056889;28;20056;-79
2024/03/16 07:55:01;;;;;;;17.25;11.57;;;16.30;82.90;;;;;;5075098;28;20044;-79
2024/03/16 07:57:28;;;;;;;17.63;11.93;;;16.40;82.80;;;;;;5075338;28;20025;-79
2024/03/16 07:59:54;;;;;;;22.52;11.82;;;16.50;82.70;;;;;;5075014;28;20029;-79
2024/03/16 08:02:19;;;;;;;21.45;12.00;;;16.50;82.70;;;;;;5075242;28;20475;-79
2024/03/16 08:04:45;;;;;;;22.98;13.50;;;16.50;82.90;;;;;;5075391;28;20098;-79
2024/03/16 08:07:11;;;;;;;24.55;12.68;;;16.50;82.80;;;;;;5072163;28;20024;-78
2024/03/16 08:09:37;;;;;;;20.27;11.38;;;16.50;83.00;;;;;;5080898;28;20515;-76
2024/03/16 08:12:03;;;;;;;19.27;12.20;;;16.50;83.30;;;;;;5079257;28;20037;-79
2024/03/16 08:14:34;;;;;;;18.15;11.13;;;16.40;83.40;;;;;;5061705;28;20041;-73
2024/03/16 08:17:03;;;;;;;20.95;11.80;;;16.40;83.60;;;;;;5074202;28;20094;-78
2024/03/16 08:19:29;;;;;;;18.30;10.25;;;16.50;83.70;;;;;;5073892;28;20459;-77
2024/03/16 08:21:54;;;;;;;14.30;9.77;;;16.40;83.70;;;;;;5075076;28;20033;-79
2024/03/16 08:24:21;;;;;;;16.13;9.85;;;16.30;83.80;;;;;;5073891;28;20037;-77
2024/03/16 08:26:47;;;;;;;23.15;10.68;;;16.20;85.00;;;;;;5073758;28;20396;-78
2024/03/16 08:29:12;;;;;;;17.92;9.55;;;16.30;84.70;;;;;;5074354;28;20053;-79
2024/03/16 08:31:38;;;;;;;16.27;9.98;;;16.30;84.70;;;;;;5079067;28;20025;-82
2024/03/16 08:34:04;;;;;;;14.20;8.85;;;16.30;84.70;;;;;;5075616;28;20488;-79
2024/03/16 08:36:30;;;;;;;13.55;8.63;;;16.40;84.70;;;;;;5075071;28;20369;-78
2024/03/16 08:38:56;;;;;;;14.35;8.30;;;16.50;84.70;;;;;;5077158;28;20032;-81
2024/03/16 08:41:22;;;;;;;14.75;8.77;;;16.50;84.50;;;;;;5080652;28;20104;-82
2024/03/16 08:43:48;;;;;;;16.20;8.15;;;16.50;84.60;;;;;;5076709;28;20036;-84
2024/03/16 08:46:14;;;;;;;15.52;7.20;;;16.70;84.80;;;;;;5075967;28;20136;-81
2024/03/16 08:48:40;;;;;;;23.05;14.88;;;16.80;84.30;;;;;;5074199;28;20044;-80
2024/03/16 08:51:05;;;;;;;17.45;7.95;;;16.90;84.00;;;;;;5074501;28;20052;-82
2024/03/16 08:53:31;;;;;;;13.95;7.32;;;17.10;84.00;;;;;;5075109;28;20040;-81
2024/03/16 08:55:58;;;;;;;13.10;6.55;;;17.30;83.70;;;;;;5074383;28;20109;-80
2024/03/16 08:58:29;;;;;;;13.70;6.68;;;17.40;83.30;;;;;;5075258;28;20028;-82
2024/03/16 09:00:55;;;;;;;15.98;7.20;;;17.50;82.90;;;;;;5075662;28;20039;-82
2024/03/16 09:03:21;;;;;;;13.73;6.80;;;17.70;82.60;;;;;;5075059;28;20032;-81
2024/03/16 09:05:46;;;;;;;14.30;6.78;;;17.80;82.40;;;;;;5074874;28;20032;-81
2024/03/16 09:08:12;;;;;;;13.30;6.07;;;17.90;82.20;;;;;;5062025;28;20056;-82
2024/03/16 09:10:38;;;;;;;13.30;6.38;;;17.90;81.90;;;;;;5062063;28;20041;-82
2024/03/16 09:13:04;;;;;;;15.20;5.75;;;18.00;81.70;;;;;;5056062;28;20115;-78
2024/03/16 09:15:29;;;;;;;14.55;6.63;;;18.00;81.20;;;;;;5073830;28;20071;-82
2024/03/16 09:17:55;;;;;;;11.55;5.70;;;18.10;81.00;;;;;;5082564;28;20182;-88
2024/03/16 09:20:21;;;;;;;9.95;5.32;;;18.10;80.40;;;;;;5076907;28;20587;-83
2024/03/16 09:22:48;;;;;;;11.15;5.15;;;17.90;79.90;;;;;;5085651;28;20146;-86
2024/03/16 09:25:14;;;;;;;10.45;5.45;;;17.70;80.10;;;;;;5077123;28;20047;-85
2024/03/16 09:27:40;;;;;;;13.10;5.40;;;17.70;80.40;;;;;;5075947;28;20468;-85
2024/03/16 09:30:07;;;;;;;10.23;5.32;;;17.80;80.30;;;;;;5078136;28;20048;-86
2024/03/16 09:32:34;;;;;;;11.18;5.10;;;17.90;80.10;;;;;;5078376;28;20020;-87
2024/03/16 09:34:59;;;;;;;12.90;5.13;;;18.00;79.80;;;;;;5075461;28;20037;-86
2024/03/16 09:37:25;;;;;;;13.65;5.30;;;18.00;79.70;;;;;;5077802;28;20521;-87
2024/03/16 09:39:51;;;;;;;12.77;6.07;;;18.10;79.80;;;;;;5075895;28;20404;-87
2024/03/16 09:42:17;;;;;;;12.15;6.05;;;18.10;79.70;;;;;;5075544;28;20027;-86
2024/03/16 09:44:45;;;;;;;12.73;4.55;;;18.10;79.40;;;;;;5075771;28;20028;-86
2024/03/16 09:47:15;;;;;;;10.38;4.35;;;18.10;79.20;;;;;;5075484;28;20036;-87
2024/03/16 09:49:42;;;;;;;8.73;3.45;;;18.20;78.70;;;;;;5075791;28;20082;-86
2024/03/16 09:52:13;;;;;;;8.45;3.88;;;18.20;77.90;;;;;;5075616;28;20468;-86
2024/03/16 09:54:42;;;;;;;11.40;6.03;;;18.20;78.10;;;;;;5076060;28;20052;-86
2024/03/16 09:57:14;;;;;;;9.10;3.95;;;18.40;77.40;;;;;;5064231;28;20052;-84
2024/03/16 09:59:48;;;;;;;9.40;3.83;;;18.50;76.90;;;;;;5084672;28;20032;-86
2024/03/16 10:02:21;;;;;;;9.40;3.95;;;18.50;76.90;;;;;;5075603;28;20112;-85
2024/03/16 10:04:48;;;;;;;8.70;3.40;;;18.60;76.50;;;;;;5075425;28;20037;-85
2024/03/16 10:07:14;;;;;;;9.55;3.50;;;18.50;76.00;;;;;;5081902;28;20029;-85
2024/03/16 10:09:53;;;;;;;11.48;4.05;;;18.40;75.90;;;;;;5085716;28;20051;-85
2024/03/16 10:12:20;;;;;;;9.30;3.45;;;18.30;76.00;;;;;;5074943;28;20032;-86
2024/03/16 10:15:08;;;;;;;6.28;2.85;;;18.30;75.50;;;;;;5060336;28;20037;-87
2024/03/16 10:17:38;;;;;;;13.25;3.53;;;18.30;75.60;;;;;;5074212;28;20091;-85
2024/03/16 10:20:15;;;;;;;8.30;3.45;;;18.30;75.20;;;;;;5078348;28;20024;-86
2024/03/16 10:22:48;;;;;;;6.10;2.80;;;18.40;75.00;;;;;;5058524;28;20040;-86
2024/03/16 10:25:15;;;;;;;6.37;2.43;;;18.60;74.70;;;;;;5075380;28;20036;-85
2024/03/16 10:27:42;;;;;;;5.75;2.25;;;18.70;74.00;;;;;;5076865;28;20336;-84
2024/03/16 10:30:13;;;;;;;9.55;3.05;;;18.90;73.60;;;;;;5077191;28;20116;-85
2024/03/16 10:32:53;;;;;;;7.47;2.33;;;19.00;73.20;;;;;;5076997;28;20036;-84
2024/03/16 10:35:26;;;;;;;7.82;3.78;;;19.10;72.60;;;;;;5076396;28;20099;-85
2024/03/16 10:37:52;;;;;;;11.15;3.00;;;19.00;72.50;;;;;;5074643;28;20060;-86
2024/03/16 10:40:21;;;;;;;6.90;2.50;;;19.00;72.50;;;;;;5056981;28;20043;-86
2024/03/16 10:42:48;;;;;;;6.93;3.00;;;19.00;72.40;;;;;;5075017;28;20040;-85
2024/03/16 10:45:16;;;;;;;7.63;2.80;;;19.00;72.40;;;;;;5074901;28;20392;-86
2024/03/16 10:47:50;;;;;;;5.90;2.67;;;18.90;72.60;;;;;;5075177;28;20032;-85
2024/03/16 10:50:19;;;;;;;6.38;2.85;;;18.80;73.20;;;;;;5057250;28;20045;-86
2024/03/16 10:52:48;;;;;;;8.00;2.30;;;18.70;73.00;;;;;;5086113;28;20395;-85
2024/03/16 10:55:16;;;;;;;6.55;2.88;;;18.60;72.90;;;;;;5075763;28;20037;-83
2024/03/16 10:57:44;;;;;;;8.68;2.50;;;18.50;73.30;;;;;;5073349;28;20492;-85
2024/03/16 11:00:34;;;;;;;6.40;2.30;;;18.60;73.20;;;;;;5073467;28;20049;-85
2024/03/16 11:03:09;;;;;;;9.10;3.10;;;18.70;73.30;;;;;;5072841;28;20127;-85
2024/03/16 11:05:47;;;;;;;6.85;2.40;;;18.90;73.20;;;;;;5075442;28;20055;-86
2024/03/16 11:08:12;;;;;;;8.95;2.38;;;19.10;72.50;;;;;;5074004;28;20051;-85
2024/03/16 11:10:42;;;;;;;9.13;2.40;;;19.20;71.70;;;;;;5056207;28;20127;-85
2024/03/16 11:13:17;;;;;;;12.52;3.10;;;19.40;70.90;;;;;;5074199;28;20029;-86
2024/03/16 11:15:46;;;;;;;9.70;2.90;;;19.60;70.50;;;;;;5073420;28;20037;-85
2024/03/16 11:18:17;;;;;;;9.38;2.53;;;19.80;70.10;;;;;;5073524;28;20056;-86
2024/03/16 11:20:44;;;;;;;7.60;2.42;;;20.00;70.20;;;;;;5055735;28;20512;-86
2024/03/16 11:23:23;;;;;;;8.60;2.65;;;20.20;69.80;;;;;;5055632;28;20033;-86
2024/03/16 11:25:49;;;;;;;7.85;2.45;;;20.30;69.00;;;;;;5074345;28;20125;-86
2024/03/16 11:28:17;;;;;;;8.68;2.85;;;20.30;68.70;;;;;;5079526;28;20033;-83
2024/03/16 11:30:43;;;;;;;7.28;2.47;;;20.30;68.70;;;;;;5078233;28;20063;-86
2024/03/16 11:33:24;;;;;;;7.22;2.85;;;20.10;68.20;;;;;;5073088;28;20040;-88
2024/03/16 11:35:54;;;;;;;8.23;2.38;;;19.90;69.00;;;;;;5077556;28;20037;-85
2024/03/16 11:38:21;;;;;;;11.70;2.90;;;19.60;69.50;;;;;;5081609;28;20098;-84
2024/03/16 11:40:48;;;;;;;8.13;2.80;;;19.40;69.70;;;;;;5075536;28;20037;-87
2024/03/16 11:43:14;;;;;;;6.40;2.60;;;19.20;69.80;;;;;;5077431;28;20024;-85
2024/03/16 11:45:49;;;;;;;8.18;2.60;;;19.10;70.30;;;;;;5077973;28;20039;-86
2024/03/16 11:48:16;;;;;;;9.93;2.80;;;19.00;70.90;;;;;;5079298;28;20455;-85
2024/03/16 11:50:43;;;;;;;6.57;2.58;;;18.90;70.50;;;;;;5077052;28;20067;-84
2024/03/16 11:53:12;;;;;;;8.38;2.72;;;19.00;70.50;;;;;;5077323;28;20025;-84
2024/03/16 11:55:38;;;;;;;5.68;2.60;;;19.10;70.50;;;;;;5077506;28;20033;-84
2024/03/16 11:58:04;;;;;;;9.18;2.97;;;19.40;69.90;;;;;;5077117;28;20062;-84
2024/03/16 12:00:31;;;;;;;10.48;2.70;;;19.60;69.70;;;;;;5077439;28;20115;-85
2024/03/16 12:03:00;;;;;;;7.13;2.30;;;19.80;69.00;;;;;;5076218;28;20040;-86
2024/03/16 12:05:26;;;;;;;8.32;2.60;;;20.00;68.90;;;;;;5076980;28;20043;-84
2024/03/16 12:07:54;;;;;;;5.18;2.40;;;20.10;68.50;;;;;;5076170;28;20041;-85
2024/03/16 12:10:22;;;;;;;7.10;2.15;;;20.10;67.90;;;;;;5058730;28;20389;-84
2024/03/16 12:12:49;;;;;;;5.25;2.03;;;20.10;67.70;;;;;;5076593;28;20029;-84
2024/03/16 12:15:17;;;;;;;5.47;2.17;;;20.20;67.40;;;;;;5058224;28;20124;-84
2024/03/16 12:17:44;;;;;;;6.93;2.45;;;20.30;67.80;;;;;;5077718;28;20037;-85
2024/03/16 12:20:11;;;;;;;6.45;2.15;;;20.50;67.70;;;;;;5080182;28;20049;-81
2024/03/16 12:22:50;;;;;;;8.00;2.50;;;20.70;67.80;;;;;;5078405;28;20028;-84
2024/03/16 12:25:17;;;;;;;10.27;2.40;;;20.80;67.20;;;;;;5076786;28;20029;-83
2024/03/16 12:27:44;;;;;;;7.32;2.65;;;21.10;66.90;;;;;;5076871;28;20104;-82
2024/03/16 12:30:13;;;;;;;7.07;2.80;;;21.20;66.50;;;;;;5077261;28;20456;-85
2024/03/16 12:32:41;;;;;;;5.65;2.20;;;21.30;66.40;;;;;;5076074;28;20024;-82
2024/03/16 12:35:09;;;;;;;5.43;2.03;;;21.40;66.50;;;;;;5076750;28;20032;-82
2024/03/16 12:37:36;;;;;;;7.95;2.20;;;21.40;66.50;;;;;;5075308;28;20032;-75